My Meet Scores
Lily Short, Gym Kinetics Gymnastics - MyMeetScores.com
Top100 | Top Teams | Upcoming Meets | Completed Meets | Latest | Add Scores | Help| Support | Bookmark and Share

Lily Short, Gym Kinetics Gymnastics
Personal Bests
LevelVault BarsBeamFloorAA
39.6509.125 9.5759.50037.250
49.3509.650 9.6759.42537.625
59.5259.200 9.2009.22536.175
Meet Scores
Date Meet Team Session Level Division Vault Bars Beam Floor AA
2022-01-21 King Arthur Invitational 2022 Gym Kinetics Gymnastics 2 5 Sr B 9.475 4 8.725 9 8.750 5T 9.225 5 36.175 4
2022-01-14 2022 Bravo Classic Gym Kinetics Gymnastics 05B 5 Sr 9.125 3 8.900 6 9.150 2 8.900 6 36.075 2
2021-12-17 2021 Women%27s Hawaiian Pineapple Invitational Gym Kinetics Gymnastics 2B 5 Maui 9.050 5 9.200 4 8.775 6 9.000 1 36.025 2
2021-12-10 Santa%27s Workshop and Gift Drive Gym Kinetics Gymnastics 4 5 Sr A 9.525 1T 8.200 7 9.200 2 8.450 7 35.375 4
2021-03-12 2021 Illinois Level 4 State Championships Gym Kinetics Gymnastics 7 4 Sr D 9.275 2 9.650 4 9.575 2 9.125 8 37.625 2
2021-02-26 Kinetic Classic 2021 Gym Kinetics Gymnastics 09 4 Older 9.250 3 9.200 10 9.500 4 9.000 15T 36.950 4
2021-02-12 Harley Meet Women - Midwest Twisters Gym Kinetics Gymnastics S02 4 Sr B 9.350 1 9.050 5 9.300 1 9.200 2 36.900 1
2021-01-21 King Arthur Invitational Gym Kinetics Gymnastics 7 4 SR 8.900 4 9.200 8 9.525 2 9.425 2 37.050 2
2021-01-14 2021 Bravo Classic Gym Kinetics Gymnastics 5 4 Sr 9.300 6 9.200 6 9.450 6 9.100 11 37.050 2
2020-12-18 Aspire Classic Gym Kinetics Gymnastics 1 4 Older 9.000 3T 8.900 8 9.350 5* 9.150 4 36.400 2T
2020-03-06 Illinois Level 4 State Championships Gym Kinetics Gymnastics 5 4 Jr E 9.300 6T 9.125 13 9.575 2T 9.025 11 37.025 5
2020-02-21 Kinetic Classic Gym Kinetics Gymnastics 06 4 Middle 8.950 19T 9.100 40T 9.675 2 9.000 37T 36.725 16T
2020-01-31 Chow's Challenge Gym Kinetics Gymnastics B2 4 Jr C 9.150 3 8.925 5 9.150 5 9.100 4 36.325 4
2020-01-17 2020 Bravo Classic Gym Kinetics Gymnastics 5B 4 Jr 9.125 7 8.075 21 9.475 1 9.000 12 35.675 11T
2020-01-10 Leenda's Island Adventure Gym Kinetics Gymnastics PG5 4 10 Year Ol 8.950 1 8.525 14T 9.250 5T 8.850 10T 35.575 6
2019-12-06 Ultimate Wish Classic Gym Kinetics Gymnastics 10 4 SR A 8.550 10 9.150 4 9.200 4 9.175 3 36.075 3T
2019-03-22 Illinois Gymnastics State Championships Gym Kinetics Gymnastics 6 4 YT C 9.100 7 9.500 3 9.575 7T 9.100 12T 37.275 3
2019-03-01 NGCD Academy's 2019 Flip'r Invitational Gym Kinetics Gymnastics 10 4 Child B 9.000 8T 9.250 4T 9.475 2 8.900 8 36.625 6
2019-02-23 Kinetic Classic 2019 Gym Kinetics Gymnastics 1 4 Younger 8.800 10 8.950 20T 8.625 30 8.900 22 35.275 22
2019-02-08 Midwest Twisters Harley Meet Womens Gym Kinetics Gymnastics T10 4 9 yrs. 8.775 4T 8.325 12 8.150 14T 8.500 12T 33.750 12
2019-01-18 2019 Bravo Classic Gym Kinetics Gymnastics 3B 4 Jr 8.700 17T 8.450 17 8.800 15 8.650 14 34.600 17
2019-01-11 St Jude Benefit Meet Gym Kinetics Gymnastics 6A 4 Jr B 8.850 9 8.275 12 8.825 13 8.800 16T 34.750 14T
2018-12-14 2018 Aspire Classic Gym Kinetics Gymnastics 6A 4 Younger 0.000 23 8.800 16 9.400 6 9.200 8T 27.400 23
2018-05-03 Illinois USA Gymnastics Level 3 State Championships Gym Kinetics Gymnastics 4 3 Youth E 9.650 6T 8.750 24T 9.375 6 9.400 11T 37.175 13
2018-02-23 Kinetic Classic Gym Kinetics Gymnastics 4 3 Middle 9.450 7T 8.700 77 9.575 3 9.275 40T 37.000 22T
2018-02-09 Arizona Sunrays Classic Rock Invitational Gym Kinetics Gymnastics R02 3 JrA 9.325 1T 8.700 6 9.200 3 9.450 2T 36.675 3
2018-02-03 Midwest Games Gym Kinetics Gymnastics 5 3 JR B 9.325 2 9.125 9 9.300 1T 9.450 5 37.200 3
2018-01-19 2018 Bravo Classic Gym Kinetics Gymnastics 5B 3 Child 9.375 4 7.650 17 9.125 4 9.000 6 35.150 9
2017-12-15 2017 Aspire Classic Gym Kinetics Gymnastics 9A 3 Younger 9.325 3 9.025 6 9.400 1 9.500 2 37.250 2
2017-02-18 2017 Great Western Invitational Women's 3D Gymnastics and Cheer Inc 2 3 Filly 8.850 16 8.825 12T 8.775 10 9.100 12 35.550 12
2017-02-02 The Big Chill 3D Gymnastics and Cheer Inc 1 3 7 Under 8.850 7 8.050 8 8.600 4 8.075 9 33.575 7
2016-12-15 2016 Hawaiian Pineapple Sanction 3D Gymnastics and Cheer Inc 10B 3 Ages 7U 9.075 6 8.400 8 8.400 6 8.150 6 34.025 8
2016-12-02 Ultimate Wish Classic 3D Gymnastics and Cheer Inc 11 3 Jr A 8.475 16T 8.300 15 9.250 2 8.775 15 34.800 12
Get your scores on
a t-shirt, pin, or hoodie